createdAt,value
2023-05-20T00:01:02.051Z,13.53
2023-05-20T00:03:30.697Z,13.49
2023-05-20T00:05:59.358Z,13.52
2023-05-20T00:08:27.452Z,13.48
2023-05-20T00:10:56.164Z,13.49
2023-05-20T00:13:24.755Z,13.47
2023-05-20T00:15:53.675Z,13.49
2023-05-20T00:18:22.154Z,13.38
2023-05-20T00:20:50.490Z,13.21
2023-05-20T00:23:18.510Z,13.27
2023-05-20T00:25:47.114Z,13.22
2023-05-20T00:28:15.428Z,13.11
2023-05-20T00:30:43.746Z,13.13
2023-05-20T00:33:15.352Z,13.08
2023-05-20T00:35:43.764Z,13.02
2023-05-20T00:38:12.456Z,13.01
2023-05-20T00:40:40.890Z,13.00
2023-05-20T00:43:09.955Z,13.05
2023-05-20T00:45:38.901Z,13.13
2023-05-20T00:48:07.735Z,13.18
2023-05-20T00:50:36.188Z,13.32
2023-05-20T00:53:05.902Z,13.34
2023-05-20T00:55:35.915Z,13.29
2023-05-20T00:58:05.843Z,13.30
2023-05-20T01:00:34.527Z,13.28
2023-05-20T01:03:02.815Z,13.44
2023-05-20T01:05:31.631Z,13.53
2023-05-20T01:07:59.883Z,13.54
2023-05-20T01:10:30.334Z,13.50
2023-05-20T01:13:05.665Z,13.48
2023-05-20T01:15:35.006Z,13.40
2023-05-20T01:18:06.222Z,13.27
2023-05-20T01:20:36.156Z,13.09
2023-05-20T01:23:04.827Z,13.00
2023-05-20T01:25:33.005Z,13.06
2023-05-20T01:28:01.694Z,13.10
2023-05-20T01:30:38.263Z,13.14
2023-05-20T01:33:12.558Z,13.20
2023-05-20T01:35:42.309Z,13.23
2023-05-20T01:38:12.810Z,13.31
2023-05-20T01:40:43.319Z,13.36
2023-05-20T01:43:14.650Z,13.40
2023-05-20T01:45:45.280Z,13.33
2023-05-20T01:48:13.786Z,13.30
2023-05-20T01:50:42.510Z,13.27
2023-05-20T01:53:11.916Z,13.19
2023-05-20T01:55:40.346Z,13.04
2023-05-20T01:58:08.601Z,12.92
2023-05-20T02:00:37.800Z,12.87
2023-05-20T02:03:06.278Z,12.91
2023-05-20T02:05:37.514Z,12.84
2023-05-20T02:08:06.650Z,12.84
2023-05-20T02:10:34.757Z,12.84
2023-05-20T02:13:02.874Z,12.74
2023-05-20T02:15:32.339Z,12.78
2023-05-20T02:18:00.581Z,12.74
2023-05-20T02:20:28.818Z,12.75
2023-05-20T02:22:57.548Z,12.74
2023-05-20T02:25:25.937Z,12.69
2023-05-20T02:27:54.054Z,12.75
2023-05-20T02:30:22.961Z,12.73
2023-05-20T02:32:51.226Z,12.74
2023-05-20T02:35:19.456Z,12.64
2023-05-20T02:37:49.876Z,12.67
2023-05-20T02:40:18.068Z,12.71
2023-05-20T02:42:46.844Z,12.74
2023-05-20T02:45:15.634Z,12.72
2023-05-20T02:47:43.971Z,12.77
2023-05-20T02:50:12.137Z,12.59
2023-05-20T02:52:42.780Z,12.66
2023-05-20T02:55:11.965Z,12.61
2023-05-20T02:57:40.889Z,12.61
2023-05-20T03:00:16.738Z,12.60
2023-05-20T03:02:45.213Z,12.45
2023-05-20T03:05:13.542Z,12.39
2023-05-20T03:07:41.926Z,12.42
2023-05-20T03:10:10.868Z,12.45
2023-05-20T03:12:39.685Z,12.43
2023-05-20T03:15:08.953Z,12.36
2023-05-20T03:17:37.783Z,12.34
2023-05-20T03:20:07.524Z,12.36
2023-05-20T03:22:36.300Z,12.41
2023-05-20T03:25:06.192Z,12.39
2023-05-20T03:27:34.678Z,12.37
2023-05-20T03:30:05.100Z,12.23
2023-05-20T03:32:33.605Z,12.38
2023-05-20T03:35:02.019Z,12.38
2023-05-20T03:37:30.205Z,12.43
2023-05-20T03:39:58.633Z,12.44
2023-05-20T03:42:26.901Z,12.49
2023-05-20T03:44:55.689Z,12.55
2023-05-20T03:47:24.420Z,12.58
2023-05-20T03:49:52.922Z,12.63
2023-05-20T03:52:21.416Z,12.64
2023-05-20T03:54:49.899Z,12.70
2023-05-20T03:57:18.115Z,12.72
2023-05-20T03:59:46.630Z,12.61
2023-05-20T04:02:15.195Z,12.58
2023-05-20T04:04:43.675Z,12.63
2023-05-20T04:07:12.334Z,12.58
2023-05-20T04:09:41.098Z,12.58
2023-05-20T04:12:09.560Z,12.72
2023-05-20T04:14:39.053Z,12.76
2023-05-20T04:17:07.148Z,12.80
2023-05-20T04:19:36.321Z,12.73
2023-05-20T04:22:04.944Z,12.79
2023-05-20T04:24:32.970Z,12.83
2023-05-20T04:27:02.131Z,12.89
2023-05-20T04:29:30.513Z,12.99
2023-05-20T04:31:58.905Z,13.12
2023-05-20T04:34:30.736Z,13.14
2023-05-20T04:37:00.665Z,13.25
2023-05-20T04:39:29.358Z,13.17
2023-05-20T04:41:58.434Z,13.30
2023-05-20T04:44:26.978Z,13.25
2023-05-20T04:46:57.894Z,13.30
2023-05-20T04:49:26.505Z,13.34
2023-05-20T04:51:55.888Z,13.46
2023-05-20T04:54:25.197Z,13.49
2023-05-20T04:56:53.464Z,13.53
2023-05-20T04:59:21.759Z,13.61
2023-05-20T05:01:50.463Z,13.73
2023-05-20T05:04:18.762Z,13.78
2023-05-20T05:06:49.053Z,13.84
2023-05-20T05:09:17.872Z,13.91
2023-05-20T05:11:46.592Z,14.02
2023-05-20T05:14:14.955Z,14.12
2023-05-20T05:16:43.382Z,14.22
2023-05-20T05:19:11.922Z,14.37
2023-05-20T05:21:40.323Z,14.46
2023-05-20T05:24:08.896Z,14.54
2023-05-20T05:26:37.264Z,14.70
2023-05-20T05:29:05.651Z,14.76
2023-05-20T05:31:34.140Z,14.81
2023-05-20T05:34:02.299Z,14.86
2023-05-20T05:36:34.197Z,14.94
2023-05-20T05:39:03.532Z,15.06
2023-05-20T05:41:32.103Z,15.11
2023-05-20T05:44:00.685Z,15.28
2023-05-20T05:46:29.539Z,15.35
2023-05-20T05:48:59.024Z,15.43
2023-05-20T05:51:29.274Z,15.57
2023-05-20T05:53:58.478Z,15.60
2023-05-20T05:56:26.542Z,15.68
2023-05-20T05:58:54.866Z,15.73
2023-05-20T06:01:23.506Z,15.76
2023-05-20T06:03:52.638Z,15.87
2023-05-20T06:06:21.240Z,15.90
2023-05-20T06:08:49.702Z,15.94
2023-05-20T06:11:18.260Z,16.00
2023-05-20T06:13:46.619Z,16.19
2023-05-20T06:16:15.644Z,16.21
2023-05-20T06:18:46.100Z,16.30
2023-05-20T06:21:17.484Z,16.43
2023-05-20T06:23:46.186Z,16.68
2023-05-20T06:26:14.689Z,16.69
2023-05-20T06:28:43.644Z,16.69
2023-05-20T06:31:12.213Z,16.91
2023-05-20T06:33:41.184Z,17.03
2023-05-20T06:36:09.680Z,17.05
2023-05-20T06:38:38.489Z,17.22
2023-05-20T06:41:06.818Z,17.30
2023-05-20T06:43:35.276Z,17.41
2023-05-20T06:46:04.203Z,17.60
2023-05-20T06:48:32.620Z,17.77
2023-05-20T06:51:01.710Z,17.82
2023-05-20T06:53:33.092Z,17.86
2023-05-20T06:56:01.398Z,17.93
2023-05-20T06:58:30.480Z,18.05
2023-05-20T07:00:59.185Z,18.28
2023-05-20T07:03:27.598Z,18.37
2023-05-20T07:05:56.710Z,18.53
2023-05-20T07:08:25.552Z,18.70
2023-05-20T07:10:56.867Z,18.90
2023-05-20T07:13:26.362Z,19.20
2023-05-20T07:15:54.741Z,19.59
2023-05-20T07:18:22.880Z,19.73
2023-05-20T07:20:52.585Z,19.85
2023-05-20T07:23:24.080Z,20.05
2023-05-20T07:25:53.892Z,20.43
2023-05-20T07:28:22.856Z,20.38
2023-05-20T07:30:51.262Z,20.62
2023-05-20T07:33:19.963Z,20.97
2023-05-20T07:35:49.001Z,21.10
2023-05-20T07:38:17.217Z,21.19
2023-05-20T07:40:46.598Z,21.59
2023-05-20T07:43:15.418Z,21.65
2023-05-20T07:45:43.901Z,21.88
2023-05-20T07:48:13.259Z,22.33
2023-05-20T07:50:41.677Z,22.18
2023-05-20T07:53:10.189Z,22.73
2023-05-20T07:55:39.695Z,22.97
2023-05-20T07:58:08.108Z,22.75
2023-05-20T08:00:36.943Z,23.15
2023-05-20T08:03:08.721Z,23.25
2023-05-20T08:05:38.526Z,23.24
2023-05-20T08:08:09.709Z,23.13
2023-05-20T08:10:40.578Z,23.53
2023-05-20T08:13:09.221Z,23.70
2023-05-20T08:15:37.360Z,23.92
2023-05-20T08:18:06.136Z,23.99
2023-05-20T08:20:34.718Z,24.09
2023-05-20T08:23:02.946Z,24.11
2023-05-20T08:25:31.420Z,24.18
2023-05-20T08:28:04.072Z,24.28
2023-05-20T08:30:34.071Z,24.63
2023-05-20T08:33:02.792Z,24.56
2023-05-20T08:35:31.681Z,24.75
2023-05-20T08:38:01.638Z,24.74
2023-05-20T08:40:30.266Z,25.01
2023-05-20T08:42:59.330Z,25.00
2023-05-20T08:45:31.882Z,24.89
2023-05-20T08:48:01.608Z,25.18
2023-05-20T08:50:29.867Z,25.14
2023-05-20T08:52:58.298Z,25.17
2023-05-20T08:55:33.041Z,24.99
2023-05-20T08:58:01.679Z,25.10
2023-05-20T09:00:30.599Z,25.39
2023-05-20T09:03:01.140Z,25.71
2023-05-20T09:05:30.054Z,25.89
2023-05-20T09:08:08.448Z,25.87
2023-05-20T09:10:39.433Z,25.81
2023-05-20T09:13:08.838Z,26.03
2023-05-20T09:15:37.985Z,26.01
2023-05-20T09:18:08.343Z,25.98
2023-05-20T09:20:38.120Z,25.75
2023-05-20T09:23:08.853Z,26.02
2023-05-20T09:25:38.359Z,26.13
2023-05-20T09:28:11.838Z,26.21
2023-05-20T09:30:40.475Z,26.21
2023-05-20T09:33:09.379Z,26.22
2023-05-20T09:35:38.003Z,26.26
2023-05-20T09:38:10.240Z,26.47
2023-05-20T09:40:40.627Z,26.08
2023-05-20T09:43:11.202Z,26.16
2023-05-20T09:45:39.963Z,26.22
2023-05-20T09:48:10.818Z,26.32
2023-05-20T09:50:40.129Z,26.26
2023-05-20T09:53:09.670Z,26.48
2023-05-20T09:55:38.638Z,26.37
2023-05-20T09:58:08.497Z,26.26
2023-05-20T10:00:36.991Z,26.14
2023-05-20T10:03:05.655Z,26.30
2023-05-20T10:05:40.243Z,26.36
2023-05-20T10:08:33.150Z,26.49
2023-05-20T10:11:43.123Z,26.36
2023-05-20T10:14:32.200Z,26.17
2023-05-20T10:17:17.484Z,26.30
2023-05-20T10:19:46.136Z,25.90
2023-05-20T10:22:14.528Z,25.96
2023-05-20T10:24:44.559Z,25.76
2023-05-20T10:27:15.694Z,25.96
2023-05-20T10:29:55.886Z,25.87
2023-05-20T10:32:32.461Z,25.87
2023-05-20T10:35:06.060Z,25.75
2023-05-20T10:37:51.385Z,25.56
2023-05-20T10:40:22.060Z,25.67
2023-05-20T10:42:50.649Z,25.72
2023-05-20T10:45:27.251Z,25.43
2023-05-20T10:47:57.254Z,25.45
2023-05-20T10:50:41.098Z,25.43
2023-05-20T10:53:25.342Z,25.39
2023-05-20T10:56:00.850Z,25.34
2023-05-20T10:58:37.675Z,25.27
2023-05-20T11:01:06.242Z,25.27
2023-05-20T11:03:35.673Z,25.32
2023-05-20T11:06:12.348Z,25.02
2023-05-20T11:08:41.273Z,24.96
2023-05-20T11:11:11.113Z,24.97
2023-05-20T11:13:39.823Z,24.81
2023-05-20T11:16:09.094Z,24.65
2023-05-20T11:18:37.371Z,24.55
2023-05-20T11:21:05.816Z,24.65
2023-05-20T11:23:34.419Z,24.54
2023-05-20T11:26:02.785Z,24.41
2023-05-20T11:28:35.291Z,24.30
2023-05-20T11:31:04.825Z,24.43
2023-05-20T11:33:33.027Z,24.51
2023-05-20T11:36:03.605Z,24.50
2023-05-20T11:38:33.546Z,24.52
2023-05-20T11:41:01.803Z,24.64
2023-05-20T11:43:30.435Z,24.56
2023-05-20T11:46:01.688Z,24.44
2023-05-20T11:48:30.096Z,24.28
2023-05-20T11:51:00.007Z,24.12
2023-05-20T11:53:30.367Z,24.34
2023-05-20T11:56:02.371Z,24.22
2023-05-20T11:58:31.612Z,24.25
2023-05-20T12:01:09.543Z,24.41
2023-05-20T12:03:49.211Z,24.29
2023-05-20T12:06:18.069Z,24.31
2023-05-20T12:08:47.536Z,24.24
2023-05-20T12:11:16.479Z,24.29
2023-05-20T12:13:44.658Z,24.16
2023-05-20T12:16:12.855Z,24.09
2023-05-20T12:18:42.207Z,24.03
2023-05-20T12:21:10.560Z,24.10
2023-05-20T12:23:38.616Z,24.16
2023-05-20T12:26:07.495Z,24.20
2023-05-20T12:28:36.248Z,24.10
2023-05-20T12:31:04.465Z,24.14
2023-05-20T12:33:33.600Z,24.14
2023-05-20T12:36:01.965Z,24.11
2023-05-20T12:38:30.155Z,24.02
2023-05-20T12:40:58.903Z,23.84
2023-05-20T12:43:26.994Z,23.82
2023-05-20T12:45:56.053Z,23.90
2023-05-20T12:48:25.373Z,23.84
2023-05-20T12:50:53.821Z,23.87
2023-05-20T12:53:21.980Z,23.92
2023-05-20T12:55:50.635Z,23.97
2023-05-20T12:58:18.738Z,24.11
2023-05-20T13:00:46.986Z,24.23
2023-05-20T13:03:15.980Z,24.39
2023-05-20T13:05:44.234Z,24.26
2023-05-20T13:08:12.952Z,24.09
2023-05-20T13:10:41.805Z,24.17
2023-05-20T13:13:11.212Z,24.07
2023-05-20T13:15:39.448Z,23.84
2023-05-20T13:18:08.581Z,24.02
2023-05-20T13:20:37.258Z,23.92
2023-05-20T13:23:05.738Z,23.91
2023-05-20T13:25:34.488Z,23.83
2023-05-20T13:28:03.749Z,23.87
2023-05-20T13:30:32.640Z,24.08
2023-05-20T13:33:01.477Z,24.05
2023-05-20T13:35:29.765Z,23.95
2023-05-20T13:37:58.120Z,23.86
2023-05-20T13:40:26.649Z,24.03
2023-05-20T13:42:55.309Z,23.97
2023-05-20T13:45:23.432Z,24.13
2023-05-20T13:47:52.088Z,23.95
2023-05-20T13:50:20.346Z,23.97
2023-05-20T13:52:49.733Z,23.98
2023-05-20T13:55:19.002Z,24.01
2023-05-20T13:57:47.515Z,23.88
2023-05-20T14:00:16.000Z,24.07
2023-05-20T14:02:44.632Z,24.03
2023-05-20T14:05:13.489Z,24.02
2023-05-20T14:07:41.711Z,23.88
2023-05-20T14:10:11.433Z,23.91
2023-05-20T14:12:40.318Z,23.88
2023-05-20T14:15:09.066Z,23.95
2023-05-20T14:17:37.745Z,23.94
2023-05-20T14:20:08.856Z,23.87
2023-05-20T14:22:37.413Z,23.53
2023-05-20T14:25:07.043Z,23.55
2023-05-20T14:27:35.381Z,23.57
2023-05-20T14:30:04.132Z,23.73
2023-05-20T14:32:33.873Z,23.71
2023-05-20T14:35:02.088Z,23.83
2023-05-20T14:37:30.635Z,23.79
2023-05-20T14:39:59.012Z,23.81
2023-05-20T14:42:27.507Z,23.63
2023-05-20T14:44:56.020Z,23.62
2023-05-20T14:47:24.569Z,23.73
2023-05-20T14:49:52.950Z,23.69
2023-05-20T14:52:21.359Z,23.68
2023-05-20T14:54:49.788Z,23.78
2023-05-20T14:57:19.280Z,23.71
2023-05-20T14:59:48.070Z,23.52
2023-05-20T15:02:17.531Z,23.59
2023-05-20T15:04:47.891Z,23.58
2023-05-20T15:07:16.683Z,23.60
2023-05-20T15:09:45.014Z,23.67
2023-05-20T15:12:13.366Z,23.67
2023-05-20T15:14:41.832Z,23.79
2023-05-20T15:17:10.476Z,23.65
2023-05-20T15:19:41.398Z,23.58
2023-05-20T15:22:10.180Z,23.54
2023-05-20T15:24:38.762Z,23.48
2023-05-20T15:27:06.997Z,23.52
2023-05-20T15:29:35.550Z,23.52
2023-05-20T15:32:03.938Z,23.33
2023-05-20T15:34:32.176Z,23.23
2023-05-20T15:37:00.607Z,23.24
2023-05-20T15:39:29.048Z,23.30
2023-05-20T15:41:59.501Z,23.33
2023-05-20T15:44:29.148Z,23.27
2023-05-20T15:46:57.418Z,23.21
2023-05-20T15:49:25.646Z,23.15
2023-05-20T15:52:03.110Z,23.21
2023-05-20T15:54:33.174Z,23.23
2023-05-20T15:57:02.697Z,23.16
2023-05-20T15:59:30.986Z,23.13
2023-05-20T16:01:59.688Z,23.06
2023-05-20T16:04:28.253Z,22.92
2023-05-20T16:06:56.402Z,22.78
2023-05-20T16:09:24.675Z,22.77
2023-05-20T16:11:53.088Z,22.65
2023-05-20T16:14:21.204Z,22.63
2023-05-20T16:16:49.653Z,22.60
2023-05-20T16:19:18.326Z,22.62
2023-05-20T16:21:46.615Z,22.52
2023-05-20T16:24:15.806Z,22.46
2023-05-20T16:26:44.414Z,22.44
2023-05-20T16:29:13.881Z,22.33
2023-05-20T16:31:46.980Z,22.33
2023-05-20T16:34:16.842Z,22.28
2023-05-20T16:36:47.883Z,22.21
2023-05-20T16:39:16.541Z,22.19
2023-05-20T16:41:44.686Z,22.15
2023-05-20T16:44:13.027Z,22.08
2023-05-20T16:46:41.460Z,22.02
2023-05-20T16:49:09.441Z,21.98
2023-05-20T16:51:38.223Z,21.94
2023-05-20T16:54:06.618Z,21.86
2023-05-20T16:56:36.686Z,21.80
2023-05-20T16:59:05.117Z,21.76
2023-05-20T17:01:33.795Z,21.71
2023-05-20T17:04:02.199Z,21.73
2023-05-20T17:06:34.387Z,21.73
2023-05-20T17:09:04.729Z,21.65
2023-05-20T17:11:34.295Z,21.63
2023-05-20T17:14:03.446Z,21.56
2023-05-20T17:16:31.634Z,21.50
2023-05-20T17:19:00.437Z,21.47
2023-05-20T17:21:29.095Z,21.43
2023-05-20T17:23:57.379Z,21.43
2023-05-20T17:26:26.015Z,21.35
2023-05-20T17:28:54.620Z,21.28
2023-05-20T17:31:22.850Z,21.21
2023-05-20T17:33:51.253Z,21.16
2023-05-20T17:36:22.234Z,21.10
2023-05-20T17:38:51.008Z,21.03
2023-05-20T17:41:19.625Z,20.97
2023-05-20T17:43:48.000Z,20.89
2023-05-20T17:46:16.355Z,20.80
2023-05-20T17:48:45.753Z,20.77
2023-05-20T17:51:14.211Z,20.70
2023-05-20T17:53:42.519Z,20.64
2023-05-20T17:56:11.200Z,20.56
2023-05-20T17:58:39.504Z,20.45
2023-05-20T18:01:09.381Z,20.35
2023-05-20T18:03:39.940Z,20.26
2023-05-20T18:06:08.884Z,20.23
2023-05-20T18:08:37.482Z,20.12
2023-05-20T18:11:05.750Z,20.03
2023-05-20T18:13:34.346Z,19.94
2023-05-20T18:16:02.809Z,19.87
2023-05-20T18:18:33.643Z,19.76
2023-05-20T18:21:02.059Z,19.67
2023-05-20T18:23:30.725Z,19.60
2023-05-20T18:25:58.938Z,19.53
2023-05-20T18:28:27.327Z,19.35
2023-05-20T18:30:57.526Z,19.36
2023-05-20T18:33:25.702Z,19.25
2023-05-20T18:35:54.467Z,19.19
2023-05-20T18:38:23.373Z,19.13
2023-05-20T18:40:51.757Z,18.99
2023-05-20T18:43:21.585Z,18.93
2023-05-20T18:45:50.034Z,18.68
2023-05-20T18:48:25.987Z,18.74
2023-05-20T18:50:56.559Z,18.57
2023-05-20T18:53:24.875Z,18.55
2023-05-20T18:55:53.138Z,18.50
2023-05-20T18:58:21.717Z,18.47
2023-05-20T19:00:49.917Z,18.43
2023-05-20T19:03:18.127Z,18.34
2023-05-20T19:05:46.946Z,18.33
2023-05-20T19:08:15.752Z,18.17
2023-05-20T19:10:45.430Z,18.06
2023-05-20T19:13:14.031Z,18.12
2023-05-20T19:15:42.250Z,17.85
2023-05-20T19:18:11.504Z,17.66
2023-05-20T19:20:40.092Z,17.76
2023-05-20T19:23:08.232Z,17.73
2023-05-20T19:25:36.726Z,17.71
2023-05-20T19:28:05.979Z,17.62
2023-05-20T19:30:34.248Z,17.55
2023-05-20T19:33:04.032Z,17.30
2023-05-20T19:35:34.769Z,17.14
2023-05-20T19:38:05.016Z,17.10
2023-05-20T19:40:34.287Z,17.20
2023-05-20T19:43:03.035Z,17.19
2023-05-20T19:45:31.161Z,17.16
2023-05-20T19:47:59.948Z,17.21
2023-05-20T19:50:28.245Z,17.15
2023-05-20T19:52:56.416Z,17.07
2023-05-20T19:55:24.927Z,16.99
2023-05-20T19:57:53.698Z,17.00
2023-05-20T20:00:22.147Z,16.88
2023-05-20T20:02:50.205Z,16.76
2023-05-20T20:05:19.894Z,16.93
2023-05-20T20:07:49.560Z,16.87
2023-05-20T20:10:17.698Z,16.79
2023-05-20T20:12:46.151Z,16.70
2023-05-20T20:15:14.598Z,16.54
2023-05-20T20:17:46.614Z,16.53
2023-05-20T20:20:15.485Z,16.38
2023-05-20T20:22:43.641Z,16.36
2023-05-20T20:25:14.647Z,16.41
2023-05-20T20:27:46.480Z,16.30
2023-05-20T20:30:15.156Z,16.20
2023-05-20T20:32:43.738Z,16.29
2023-05-20T20:35:12.103Z,16.36
2023-05-20T20:37:40.324Z,16.39
2023-05-20T20:40:13.660Z,16.41
2023-05-20T20:42:45.047Z,16.32
2023-05-20T20:45:15.250Z,16.22
2023-05-20T20:47:44.749Z,16.24
2023-05-20T20:50:13.270Z,16.11
2023-05-20T20:52:42.967Z,16.16
2023-05-20T20:55:11.282Z,16.03
2023-05-20T20:57:39.496Z,16.05
2023-05-20T21:00:16.532Z,16.06
2023-05-20T21:02:44.692Z,16.01
2023-05-20T21:05:14.581Z,15.92
2023-05-20T21:07:46.184Z,15.86
2023-05-20T21:10:14.806Z,15.91
2023-05-20T21:12:43.024Z,15.95
2023-05-20T21:15:12.745Z,15.95
2023-05-20T21:17:41.316Z,15.98
2023-05-20T21:20:10.109Z,16.02
2023-05-20T21:22:38.654Z,16.05
2023-05-20T21:25:07.923Z,16.05
2023-05-20T21:27:36.102Z,15.91
2023-05-20T21:30:05.166Z,15.86
2023-05-20T21:32:34.035Z,15.89
2023-05-20T21:35:02.211Z,16.01
2023-05-20T21:37:30.610Z,15.98
2023-05-20T21:39:59.014Z,16.03
2023-05-20T21:42:27.119Z,15.99
2023-05-20T21:44:55.733Z,16.07
2023-05-20T21:47:24.128Z,15.98
2023-05-20T21:49:52.211Z,16.05
2023-05-20T21:52:20.473Z,16.06
2023-05-20T21:54:48.862Z,15.98
2023-05-20T21:57:16.947Z,16.03
2023-05-20T21:59:45.285Z,15.98
2023-05-20T22:02:13.715Z,16.03
2023-05-20T22:04:43.620Z,15.96
2023-05-20T22:07:11.894Z,15.93
2023-05-20T22:09:39.935Z,15.99
2023-05-20T22:12:11.059Z,16.01
2023-05-20T22:14:39.213Z,15.99
2023-05-20T22:17:07.535Z,16.01
2023-05-20T22:19:35.892Z,16.02
2023-05-20T22:22:04.522Z,16.03
2023-05-20T22:24:32.697Z,16.06
2023-05-20T22:27:01.715Z,16.06
2023-05-20T22:29:32.586Z,16.03
2023-05-20T22:32:01.297Z,16.04
2023-05-20T22:34:29.389Z,16.09
2023-05-20T22:36:58.408Z,16.10
2023-05-20T22:39:26.828Z,16.09
2023-05-20T22:41:54.949Z,16.12
2023-05-20T22:44:23.340Z,16.15
2023-05-20T22:46:51.852Z,16.20
2023-05-20T22:49:20.008Z,16.22
2023-05-20T22:51:48.745Z,16.24
2023-05-20T22:54:17.530Z,16.23
2023-05-20T22:56:45.606Z,16.27
2023-05-20T22:59:13.898Z,16.30
2023-05-20T23:01:44.988Z,16.28
2023-05-20T23:04:13.182Z,16.23
2023-05-20T23:06:41.769Z,16.18
2023-05-20T23:09:10.287Z,16.13
2023-05-20T23:11:38.565Z,16.17
2023-05-20T23:14:06.834Z,16.16
2023-05-20T23:16:36.414Z,16.15
2023-05-20T23:19:04.542Z,16.18
2023-05-20T23:21:32.776Z,16.15
2023-05-20T23:24:01.177Z,16.12
2023-05-20T23:26:31.452Z,16.08
2023-05-20T23:29:01.580Z,16.12
2023-05-20T23:31:30.234Z,16.16
2023-05-20T23:33:59.077Z,16.11
2023-05-20T23:36:29.209Z,16.17
2023-05-20T23:38:57.686Z,16.21
2023-05-20T23:41:25.935Z,16.25
2023-05-20T23:43:54.468Z,16.30
2023-05-20T23:46:23.316Z,16.35
2023-05-20T23:48:51.661Z,16.38
2023-05-20T23:51:20.070Z,16.42
2023-05-20T23:53:48.704Z,16.47
2023-05-20T23:56:16.766Z,16.51
2023-05-20T23:58:45.012Z,16.51
